Time;durP1;ratioP1;P1;durP2;ratioP2;P2;SDS_P1;SDS_P2;PMS_P1;PMS_P2;Temp;Humidity;BMP_temperature;BMP_pressure;BME280_temperature;BME280_humidity;BME280_pressure;Samples;Min_cycle;Max_cycle;Signal;HPM_P1;HPM_P2
2021/09/30 00:02:00;;;;;;;2.40;1.97;;;7.50;99.90;;;;;;5025731;28;20609;-74
2021/09/30 00:04:25;;;;;;;3.43;2.40;;;7.40;99.90;;;;;;5023655;28;20194;-74
2021/09/30 00:06:51;;;;;;;1.93;1.73;;;7.40;99.90;;;;;;5029047;28;21128;-73
2021/09/30 00:09:17;;;;;;;2.30;2.10;;;7.60;99.90;;;;;;5020473;28;20171;-74
2021/09/30 00:11:46;;;;;;;2.20;2.00;;;7.50;99.90;;;;;;5021991;28;20273;-74
2021/09/30 00:33:02;;;;;;;2.50;2.30;;;7.20;99.90;;;;;;5034941;28;20863;-74
2021/09/30 00:40:56;;;;;;;2.50;2.30;;;7.10;99.90;;;;;;5034862;28;20275;-73
2021/09/30 00:46:11;;;;;;;3.30;2.30;;;7.30;99.90;;;;;;5037891;28;20253;-74
2021/09/30 01:57:43;;;;;;;2.13;1.77;;;6.10;99.90;;;;;;5056014;28;20669;-73
2021/09/30 02:23:33;;;;;;;2.75;2.38;;;5.90;99.90;;;;;;5036847;28;20337;-75
2021/09/30 02:58:50;;;;;;;2.60;2.40;;;5.50;99.90;;;;;;5033394;28;20244;-75
2021/09/30 03:01:19;;;;;;;3.95;2.30;;;5.70;99.90;;;;;;5032151;28;20246;-75
2021/09/30 03:03:46;;;;;;;4.28;2.20;;;5.60;99.90;;;;;;5041569;28;20218;-75
2021/09/30 03:06:13;;;;;;;2.85;2.65;;;5.50;99.90;;;;;;5027884;28;20237;-75
2021/09/30 03:08:44;;;;;;;2.15;2.05;;;5.40;99.90;;;;;;5026785;28;20187;-76
2021/09/30 03:11:10;;;;;;;2.78;2.20;;;5.40;99.90;;;;;;5029075;28;20183;-75
2021/09/30 03:13:38;;;;;;;2.70;2.50;;;5.20;99.90;;;;;;5025270;28;20179;-75
2021/09/30 03:16:26;;;;;;;2.30;2.10;;;5.50;99.90;;;;;;5030458;28;20183;-75
2021/09/30 03:19:02;;;;;;;2.50;2.30;;;5.40;99.90;;;;;;5028915;28;20193;-76
2021/09/30 03:24:15;;;;;;;2.03;1.92;;;5.40;99.90;;;;;;5026994;28;20203;-76
2021/09/30 03:26:44;;;;;;;2.13;1.98;;;5.20;99.90;;;;;;5027808;28;20317;-75
2021/09/30 03:29:12;;;;;;;2.15;2.00;;;5.50;99.90;;;;;;5024798;28;20205;-75
2021/09/30 03:31:38;;;;;;;2.55;2.30;;;5.30;99.90;;;;;;5034839;28;20202;-76
2021/09/30 03:34:04;;;;;;;2.95;2.67;;;5.60;99.90;;;;;;5028720;28;20195;-75
2021/09/30 03:36:31;;;;;;;2.65;2.45;;;5.10;99.90;;;;;;5034408;28;20190;-76
2021/09/30 03:38:57;;;;;;;2.63;2.42;;;5.40;99.90;;;;;;5040834;28;20209;-75
2021/09/30 03:41:22;;;;;;;2.80;2.60;;;5.20;99.90;;;;;;5036350;28;20182;-76
2021/09/30 03:43:48;;;;;;;2.60;2.40;;;5.30;99.90;;;;;;5038426;28;20740;-76
2021/09/30 03:46:13;;;;;;;2.50;2.30;;;5.20;99.90;;;;;;5036199;28;20273;-76
2021/09/30 03:48:39;;;;;;;2.60;2.20;;;5.10;99.90;;;;;;5028483;28;20191;-75
2021/09/30 03:51:16;;;;;;;3.03;2.47;;;5.10;99.90;;;;;;5031266;28;20219;-75
2021/09/30 03:56:22;;;;;;;2.40;2.20;;;5.60;99.90;;;;;;5044297;28;20265;-76
2021/09/30 03:59:19;;;;;;;2.00;1.80;;;5.10;99.90;;;;;;5044487;28;20182;-76
2021/09/30 04:01:55;;;;;;;2.58;2.15;;;5.30;99.90;;;;;;5041707;28;20362;-76
2021/09/30 04:04:22;;;;;;;2.47;2.15;;;5.30;99.90;;;;;;5042102;28;20264;-75
2021/09/30 04:06:47;;;;;;;2.47;2.25;;;5.10;99.90;;;;;;5036494;28;20226;-75
2021/09/30 04:09:13;;;;;;;2.80;2.60;;;5.20;99.90;;;;;;5027642;28;20197;-75
2021/09/30 04:11:40;;;;;;;2.50;1.90;;;5.10;99.90;;;;;;5033089;28;20191;-75
2021/09/30 04:14:06;;;;;;;2.50;2.30;;;5.10;99.90;;;;;;5038809;28;20244;-75
2021/09/30 04:16:32;;;;;;;2.33;2.10;;;5.00;99.90;;;;;;5025235;28;20186;-75
2021/09/30 04:18:57;;;;;;;2.77;2.30;;;5.30;99.90;;;;;;5036965;28;20211;-76
2021/09/30 04:21:23;;;;;;;2.53;2.30;;;5.30;99.90;;;;;;5039363;28;20433;-75
2021/09/30 04:23:48;;;;;;;2.63;2.43;;;5.00;99.90;;;;;;5042875;28;20190;-78
2021/09/30 04:26:14;;;;;;;4.03;2.60;;;4.90;99.90;;;;;;5036989;28;20211;-76
2021/09/30 04:28:39;;;;;;;3.13;2.83;;;4.80;99.90;;;;;;5024263;28;20186;-76
2021/09/30 04:31:05;;;;;;;3.13;2.83;;;5.00;99.90;;;;;;5031945;28;20183;-76
2021/09/30 04:33:30;;;;;;;3.40;3.20;;;5.10;99.90;;;;;;5023332;28;20187;-75
2021/09/30 04:35:56;;;;;;;3.37;2.90;;;5.00;99.90;;;;;;5032739;28;20551;-76
2021/09/30 04:38:21;;;;;;;3.27;2.97;;;4.80;99.90;;;;;;5037547;28;20221;-75
2021/09/30 04:40:47;;;;;;;3.90;2.70;;;4.80;99.90;;;;;;5032502;28;20190;-76
2021/09/30 04:43:12;;;;;;;3.23;2.57;;;4.80;99.90;;;;;;5041455;28;20183;-75
2021/09/30 04:45:38;;;;;;;4.47;2.87;;;5.00;99.90;;;;;;5042446;28;20226;-76
2021/09/30 04:48:04;;;;;;;2.80;2.60;;;5.00;99.90;;;;;;5028198;28;20183;-76
2021/09/30 04:50:29;;;;;;;3.13;2.70;;;4.80;99.90;;;;;;5031284;28;20179;-75
2021/09/30 04:53:00;;;;;;;2.87;2.67;;;5.00;99.90;;;;;;5027105;28;20426;-75
2021/09/30 04:55:26;;;;;;;3.95;2.50;;;4.80;99.90;;;;;;5040356;28;20186;-75
2021/09/30 04:57:51;;;;;;;3.17;2.60;;;4.60;99.90;;;;;;5029902;28;20189;-76
2021/09/30 05:00:17;;;;;;;2.53;2.40;;;4.60;99.90;;;;;;5028602;28;20434;-76
2021/09/30 05:02:46;;;;;;;3.20;2.90;;;4.70;99.90;;;;;;5027877;28;20191;-76
2021/09/30 05:05:16;;;;;;;4.47;4.07;;;4.80;99.90;;;;;;5026735;28;20253;-81
2021/09/30 05:07:41;;;;;;;4.05;3.10;;;4.70;99.90;;;;;;5029766;28;20202;-75
2021/09/30 05:10:10;;;;;;;3.23;2.93;;;4.50;99.90;;;;;;5022294;28;20179;-75
2021/09/30 05:12:36;;;;;;;3.08;2.88;;;4.60;99.90;;;;;;5026867;28;20202;-79
2021/09/30 05:15:01;;;;;;;3.47;2.53;;;4.60;99.90;;;;;;5041701;28;20190;-81
2021/09/30 05:17:27;;;;;;;2.93;2.63;;;4.60;99.90;;;;;;5039422;28;20187;-76
2021/09/30 05:19:54;;;;;;;2.27;2.07;;;4.80;99.90;;;;;;5029085;28;20214;-76
2021/09/30 05:22:19;;;;;;;3.55;2.90;;;4.80;99.90;;;;;;5034773;28;20214;-77
2021/09/30 05:24:45;;;;;;;2.70;2.47;;;4.80;99.90;;;;;;5034930;28;20215;-76
2021/09/30 05:27:10;;;;;;;2.80;2.60;;;4.90;99.90;;;;;;5044135;28;20189;-77
2021/09/30 05:29:36;;;;;;;3.93;2.83;;;4.70;99.90;;;;;;5026661;28;20206;-75
2021/09/30 05:32:02;;;;;;;3.90;2.80;;;4.50;99.90;;;;;;5025795;28;20627;-75
2021/09/30 05:34:27;;;;;;;2.53;2.33;;;4.70;99.90;;;;;;5023946;28;20654;-74
2021/09/30 05:36:53;;;;;;;3.20;2.63;;;4.70;99.90;;;;;;5028422;28;20195;-75
2021/09/30 05:39:18;;;;;;;2.13;1.83;;;4.50;99.90;;;;;;5035811;28;20661;-74
2021/09/30 05:41:48;;;;;;;2.60;2.40;;;4.50;99.90;;;;;;5024638;28;20183;-75
2021/09/30 05:44:15;;;;;;;2.55;2.35;;;4.70;99.90;;;;;;5033446;28;20649;-75
2021/09/30 05:46:44;;;;;;;3.00;2.70;;;4.70;99.90;;;;;;5034336;28;20206;-76
2021/09/30 05:49:10;;;;;;;3.20;3.00;;;4.60;99.90;;;;;;5038469;28;20185;-76
2021/09/30 05:51:37;;;;;;;2.88;2.60;;;4.60;99.90;;;;;;5042703;28;20183;-75
2021/09/30 05:54:03;;;;;;;3.05;2.83;;;4.60;99.90;;;;;;5033424;28;20198;-75
2021/09/30 05:56:28;;;;;;;3.40;2.70;;;4.50;99.90;;;;;;5028504;28;20182;-75
2021/09/30 05:58:54;;;;;;;3.07;2.60;;;4.60;99.90;;;;;;5042638;28;20797;-76
2021/09/30 06:01:40;;;;;;;2.77;2.53;;;4.50;99.90;;;;;;5039672;28;20197;-76
2021/09/30 06:12:24;;;;;;;2.67;2.47;;;4.70;99.90;;;;;;5042601;28;20277;-76
2021/09/30 06:14:51;;;;;;;3.40;3.10;;;4.80;99.90;;;;;;5036277;28;20299;-76
2021/09/30 06:17:16;;;;;;;2.85;2.60;;;4.90;99.90;;;;;;5028788;28;20187;-73
2021/09/30 06:19:42;;;;;;;3.20;2.90;;;5.10;99.90;;;;;;5042878;28;20190;-77
2021/09/30 06:22:08;;;;;;;3.43;3.10;;;5.10;99.90;;;;;;5028020;28;20184;-76
2021/09/30 06:24:34;;;;;;;3.77;2.90;;;5.00;99.90;;;;;;5030148;28;20175;-75
2021/09/30 06:27:01;;;;;;;3.30;3.00;;;5.00;99.90;;;;;;5040974;28;20225;-75
2021/09/30 06:29:27;;;;;;;3.78;3.47;;;5.50;99.90;;;;;;5040011;28;20223;-75
2021/09/30 06:31:52;;;;;;;4.37;3.40;;;5.40;99.90;;;;;;5031594;28;20408;-85
2021/09/30 06:34:18;;;;;;;6.33;3.47;;;5.60;99.90;;;;;;5044846;28;20186;-75
2021/09/30 06:36:44;;;;;;;4.33;3.60;;;5.60;99.90;;;;;;5043651;28;20187;-75
2021/09/30 06:39:10;;;;;;;3.30;3.00;;;6.00;99.90;;;;;;5036580;28;20186;-75
2021/09/30 06:41:35;;;;;;;5.03;3.38;;;6.00;99.90;;;;;;5027637;28;20217;-75
2021/09/30 06:44:01;;;;;;;4.03;2.87;;;6.30;99.90;;;;;;5031818;28;20207;-76
2021/09/30 06:46:27;;;;;;;2.73;2.50;;;6.10;99.90;;;;;;5034537;28;20681;-75
2021/09/30 06:48:52;;;;;;;3.40;2.70;;;6.60;99.90;;;;;;5033229;28;20759;-75
2021/09/30 06:51:19;;;;;;;3.20;2.90;;;6.50;99.90;;;;;;5033529;28;20981;-75
2021/09/30 06:53:59;;;;;;;3.40;3.10;;;7.00;99.90;;;;;;5031626;28;20183;-75
2021/09/30 06:56:26;;;;;;;5.65;2.63;;;7.10;99.90;;;;;;5028435;28;20213;-75
2021/09/30 06:58:53;;;;;;;2.70;2.50;;;7.20;99.90;;;;;;5032906;28;20186;-75
2021/09/30 07:01:19;;;;;;;4.82;2.95;;;7.20;99.90;;;;;;5024727;28;20187;-76
2021/09/30 07:03:45;;;;;;;3.77;2.63;;;7.30;99.90;;;;;;5025494;28;20179;-75
2021/09/30 07:06:12;;;;;;;4.40;3.13;;;7.50;99.90;;;;;;5034600;28;21260;-76
2021/09/30 07:08:38;;;;;;;3.42;3.13;;;7.70;99.90;;;;;;5045691;28;20262;-75
2021/09/30 07:11:04;;;;;;;3.17;2.55;;;7.80;99.90;;;;;;5038189;28;20615;-76
2021/09/30 07:13:30;;;;;;;2.90;2.60;;;7.50;99.90;;;;;;5035417;28;20210;-75
2021/09/30 07:15:56;;;;;;;4.20;3.17;;;7.50;99.90;;;;;;5038362;28;20257;-75
2021/09/30 07:18:22;;;;;;;3.73;2.53;;;8.10;99.90;;;;;;5042679;28;20616;-75
2021/09/30 07:20:50;;;;;;;5.00;3.40;;;8.10;99.90;;;;;;5044716;28;20201;-75
2021/09/30 07:23:16;;;;;;;2.80;2.60;;;7.80;99.90;;;;;;5024413;28;20205;-75
2021/09/30 07:25:42;;;;;;;2.73;2.50;;;8.20;99.90;;;;;;5021811;28;20215;-75
2021/09/30 07:28:08;;;;;;;3.08;2.40;;;8.30;99.90;;;;;;5022749;28;20184;-75
2021/09/30 07:30:33;;;;;;;3.90;3.50;;;8.30;99.90;;;;;;5025863;28;20190;-76
2021/09/30 07:33:00;;;;;;;4.77;3.13;;;8.40;99.90;;;;;;5026275;28;20531;-75
2021/09/30 07:35:26;;;;;;;3.10;2.83;;;8.60;99.90;;;;;;5037532;28;20186;-75
2021/09/30 07:37:53;;;;;;;3.45;2.70;;;8.50;99.90;;;;;;5020494;28;20553;-75
2021/09/30 07:40:19;;;;;;;3.20;2.90;;;9.00;99.90;;;;;;5026153;28;20190;-76
2021/09/30 07:42:45;;;;;;;3.20;2.53;;;9.00;99.90;;;;;;5025507;28;20467;-76
2021/09/30 07:45:11;;;;;;;4.40;3.43;;;9.20;99.90;;;;;;5022153;28;20222;-75
2021/09/30 07:47:36;;;;;;;5.57;3.53;;;9.10;99.90;;;;;;5022942;28;20206;-75
2021/09/30 07:50:04;;;;;;;4.33;4.00;;;9.40;99.90;;;;;;5024102;28;20180;-75
2021/09/30 07:52:30;;;;;;;3.60;3.00;;;9.50;99.90;;;;;;5025291;28;20174;-75
2021/09/30 07:54:56;;;;;;;5.50;3.80;;;9.50;99.90;;;;;;5023713;28;20548;-75
2021/09/30 07:57:22;;;;;;;5.70;3.90;;;10.00;99.90;;;;;;5021403;28;20183;-75
2021/09/30 07:59:47;;;;;;;3.80;3.30;;;9.90;99.90;;;;;;5022963;28;20218;-75
2021/09/30 08:02:13;;;;;;;3.37;2.80;;;10.20;99.90;;;;;;5025022;28;20669;-75
2021/09/30 08:04:38;;;;;;;4.90;3.13;;;10.20;99.90;;;;;;5028402;28;20189;-75
2021/09/30 08:07:06;;;;;;;3.33;3.03;;;10.50;99.90;;;;;;5032800;28;20401;-75
2021/09/30 08:09:32;;;;;;;3.67;2.80;;;10.40;99.90;;;;;;5029775;28;20183;-75
2021/09/30 08:11:58;;;;;;;3.90;3.40;;;11.00;99.90;;;;;;5025831;28;20180;-74
2021/09/30 08:14:24;;;;;;;3.30;3.00;;;10.70;99.90;;;;;;5022391;28;20715;-75
2021/09/30 08:16:49;;;;;;;6.07;3.20;;;10.90;99.90;;;;;;5031346;28;20433;-75
2021/09/30 08:19:15;;;;;;;8.63;3.37;;;11.00;99.90;;;;;;5033095;28;20672;-76
2021/09/30 08:21:44;;;;;;;4.20;2.90;;;11.30;99.90;;;;;;5029089;28;20577;-75
2021/09/30 08:24:13;;;;;;;4.57;2.90;;;11.70;99.90;;;;;;5036824;28;20608;-76
2021/09/30 08:26:39;;;;;;;4.53;2.60;;;12.00;99.90;;;;;;5034887;28;20219;-76
2021/09/30 08:29:05;;;;;;;2.50;2.30;;;12.10;99.90;;;;;;5043152;28;20677;-75
2021/09/30 08:31:30;;;;;;;2.50;2.00;;;12.30;99.90;;;;;;5044405;28;20182;-75
2021/09/30 08:33:58;;;;;;;2.20;2.00;;;12.40;99.90;;;;;;5055497;28;20185;-76
2021/09/30 08:36:25;;;;;;;3.78;1.88;;;13.20;99.90;;;;;;5039536;28;20183;-75
2021/09/30 08:38:51;;;;;;;2.25;2.05;;;13.60;99.90;;;;;;5020885;28;20202;-76
2021/09/30 08:41:20;;;;;;;2.23;1.40;;;13.90;99.90;;;;;;5024063;28;20195;-75
2021/09/30 08:43:46;;;;;;;2.40;1.27;;;14.60;99.90;;;;;;5026393;28;20956;-75
2021/09/30 08:46:12;;;;;;;1.73;1.37;;;15.40;99.90;;;;;;5031534;28;20840;-76
2021/09/30 08:48:39;;;;;;;2.10;1.30;;;16.40;99.90;;;;;;5041963;28;20458;-75
2021/09/30 08:51:05;;;;;;;1.10;1.00;;;16.90;99.90;;;;;;5025438;28;20434;-75
2021/09/30 08:53:33;;;;;;;1.23;1.10;;;18.30;99.90;;;;;;5028911;28;20506;-75
2021/09/30 08:56:04;;;;;;;2.00;1.30;;;19.00;99.90;;;;;;5030449;28;20438;-75
2021/09/30 08:58:30;;;;;;;1.43;1.30;;;20.20;99.90;;;;;;5023343;28;20485;-75
2021/09/30 09:01:00;;;;;;;1.37;1.20;;;20.40;99.90;;;;;;5024427;28;20436;-75
2021/09/30 09:03:51;;;;;;;1.00;1.00;;;21.30;99.90;;;;;;5023711;28;20186;-75
2021/09/30 09:06:28;;;;;;;1.77;1.00;;;23.00;99.90;;;;;;5027657;28;20474;-75
2021/09/30 09:09:17;;;;;;;1.70;1.10;;;23.70;99.90;;;;;;5028631;28;20930;-76
2021/09/30 09:11:43;;;;;;;1.73;1.10;;;24.30;99.90;;;;;;5024507;28;20562;-75
2021/09/30 09:14:10;;;;;;;2.53;1.10;;;23.70;82.40;;;;;;5025401;28;20518;-75
2021/09/30 09:16:36;;;;;;;1.10;0.80;;;23.10;73.10;;;;;;5030136;28;20187;-75
2021/09/30 09:19:02;;;;;;;1.73;0.80;;;22.50;79.60;;;;;;5048613;28;20483;-74
2021/09/30 09:21:27;;;;;;;2.87;1.10;;;22.00;71.20;;;;;;5039311;28;20187;-74
2021/09/30 09:23:58;;;;;;;1.33;1.10;;;21.20;71.70;;;;;;5024082;28;21073;-74
2021/09/30 09:26:37;;;;;;;2.00;1.00;;;20.40;71.80;;;;;;5043001;28;20354;-74
2021/09/30 09:29:13;;;;;;;1.57;1.13;;;19.80;62.40;;;;;;5044642;28;20415;-74
2021/09/30 09:31:51;;;;;;;0.90;0.90;;;19.20;74.80;;;;;;5041061;28;20890;-74
2021/09/30 09:34:32;;;;;;;0.77;0.70;;;19.60;66.40;;;;;;5029053;28;20854;-74
2021/09/30 09:37:29;;;;;;;1.10;0.80;;;20.60;69.70;;;;;;5036939;28;20444;-75
2021/09/30 09:39:57;;;;;;;1.07;1.03;;;22.60;68.40;;;;;;5042743;28;20994;-75
2021/09/30 09:42:29;;;;;;;1.00;0.90;;;23.80;71.80;;;;;;5037871;28;20439;-75
2021/09/30 09:44:58;;;;;;;1.20;1.20;;;23.90;66.80;;;;;;5023960;28;20538;-74
2021/09/30 09:47:30;;;;;;;1.00;0.80;;;24.90;65.50;;;;;;5046239;28;20567;-74
2021/09/30 09:50:14;;;;;;;0.97;0.87;;;25.20;62.80;;;;;;5031154;28;20438;-74
2021/09/30 09:52:52;;;;;;;0.93;0.83;;;24.50;60.50;;;;;;5024564;28;20408;-74
2021/09/30 09:55:21;;;;;;;1.33;0.87;;;23.10;52.90;;;;;;5025272;28;20769;-74
2021/09/30 09:58:15;;;;;;;1.33;0.90;;;22.30;52.10;;;;;;5048084;28;20491;-74
2021/09/30 10:00:50;;;;;;;2.20;0.80;;;21.80;58.50;;;;;;5036007;28;20570;-74
2021/09/30 10:03:30;;;;;;;1.00;0.90;;;21.30;57.20;;;;;;5035620;28;20436;-74
2021/09/30 10:06:00;;;;;;;0.80;0.80;;;22.50;60.90;;;;;;5022317;28;20486;-74
2021/09/30 10:08:25;;;;;;;2.33;0.70;;;24.20;66.90;;;;;;5036641;28;20432;-79
2021/09/30 10:10:55;;;;;;;0.70;0.70;;;26.20;52.50;;;;;;5067691;28;20495;-73
2021/09/30 10:13:24;;;;;;;1.23;0.70;;;28.30;57.10;;;;;;5045269;28;20190;-74
2021/09/30 10:15:54;;;;;;;0.93;0.60;;;29.20;49.90;;;;;;5042333;28;20447;-75
2021/09/30 10:18:22;;;;;;;2.77;1.37;;;30.20;55.50;;;;;;5042612;28;20451;-75
2021/09/30 10:20:48;;;;;;;1.43;0.70;;;31.50;52.10;;;;;;5036308;28;20443;-75
2021/09/30 10:23:19;;;;;;;1.07;0.80;;;31.90;50.80;;;;;;5027922;28;20783;-75
2021/09/30 10:25:46;;;;;;;1.73;0.70;;;31.10;46.30;;;;;;5036627;28;20516;-75
2021/09/30 10:28:13;;;;;;;1.27;1.17;;;30.10;44.80;;;;;;5045569;28;20439;-75
2021/09/30 10:30:44;;;;;;;0.87;0.80;;;29.40;44.00;;;;;;5042067;28;20435;-74
2021/09/30 10:33:19;;;;;;;1.63;0.73;;;28.40;42.60;;;;;;5025230;28;20851;-75
2021/09/30 10:35:51;;;;;;;0.70;0.70;;;27.70;44.90;;;;;;5034328;28;20437;-75
2021/09/30 10:38:22;;;;;;;0.70;0.70;;;27.10;41.30;;;;;;5045766;28;20429;-75
2021/09/30 10:41:10;;;;;;;0.93;0.77;;;26.60;47.30;;;;;;5028219;28;20515;-75
2021/09/30 10:43:45;;;;;;;0.70;0.70;;;25.70;47.40;;;;;;5034636;28;20444;-75
2021/09/30 10:46:24;;;;;;;2.43;1.00;;;24.90;43.40;;;;;;5023574;28;20555;-75
2021/09/30 10:48:55;;;;;;;3.93;0.80;;;24.10;48.60;;;;;;5027084;28;20906;-75
2021/09/30 10:51:22;;;;;;;1.13;0.80;;;24.20;54.30;;;;;;5035300;28;20442;-75
2021/09/30 10:53:48;;;;;;;1.27;0.70;;;25.70;57.00;;;;;;5039789;28;20523;-75
2021/09/30 10:56:41;;;;;;;1.73;0.73;;;27.70;55.70;;;;;;5039815;28;20961;-76
2021/09/30 10:59:09;;;;;;;0.80;0.60;;;29.30;48.20;;;;;;5023309;28;20209;-75
2021/09/30 11:01:47;;;;;;;1.00;0.70;;;30.80;52.80;;;;;;5038877;28;20457;-76
2021/09/30 11:04:14;;;;;;;1.23;0.73;;;32.20;41.40;;;;;;5032072;28;20439;-75
2021/09/30 11:06:40;;;;;;;0.70;0.60;;;33.20;44.20;;;;;;5020576;28;20497;-75
2021/09/30 11:09:17;;;;;;;2.43;0.80;;;34.10;42.80;;;;;;5023498;28;20445;-75
2021/09/30 11:11:51;;;;;;;2.20;0.60;;;34.80;44.10;;;;;;5036873;28;20186;-75
2021/09/30 11:14:22;;;;;;;0.97;0.60;;;34.40;37.20;;;;;;5028437;28;20438;-75
2021/09/30 11:16:51;;;;;;;3.43;1.20;;;33.00;30.50;;;;;;5040675;28;20447;-76
2021/09/30 11:19:46;;;;;;;3.20;0.67;;;32.30;36.70;;;;;;5029477;28;20429;-76
2021/09/30 11:22:12;;;;;;;2.43;1.10;;;31.00;38.00;;;;;;5025170;28;20807;-76
2021/09/30 11:24:40;;;;;;;1.00;0.90;;;30.30;42.00;;;;;;5033368;28;20460;-76
2021/09/30 11:27:09;;;;;;;1.63;0.90;;;29.30;41.70;;;;;;5036194;28;20478;-76
2021/09/30 11:29:35;;;;;;;1.00;0.80;;;28.10;39.80;;;;;;5026807;28;20420;-76
2021/09/30 11:32:02;;;;;;;0.73;0.73;;;26.50;38.20;;;;;;5031676;28;20439;-76
2021/09/30 11:34:57;;;;;;;0.83;0.80;;;25.50;42.10;;;;;;5020727;28;20241;-76
2021/09/30 11:37:32;;;;;;;1.80;1.03;;;24.80;47.10;;;;;;5035092;28;20499;-76
2021/09/30 11:39:59;;;;;;;1.20;1.03;;;25.10;47.80;;;;;;5044323;28;20479;-76
2021/09/30 11:42:35;;;;;;;1.10;0.90;;;24.70;50.60;;;;;;5040430;28;20466;-76
2021/09/30 11:45:12;;;;;;;1.23;0.60;;;25.60;53.70;;;;;;5041909;28;20436;-75
2021/09/30 11:47:38;;;;;;;1.40;1.10;;;26.20;50.30;;;;;;5028830;28;20521;-75
2021/09/30 11:50:07;;;;;;;0.60;0.60;;;28.00;54.20;;;;;;5028677;28;20447;-75
2021/09/30 11:52:33;;;;;;;0.73;0.73;;;30.20;51.30;;;;;;5026936;28;20528;-75
2021/09/30 11:55:15;;;;;;;1.47;0.73;;;31.50;38.30;;;;;;5036173;28;20866;-74
2021/09/30 11:57:51;;;;;;;1.03;0.60;;;32.40;38.00;;;;;;5031642;28;20193;-75
2021/09/30 12:00:17;;;;;;;1.93;0.67;;;33.50;32.10;;;;;;5028720;28;20464;-76
2021/09/30 12:02:58;;;;;;;0.73;0.73;;;33.60;29.20;;;;;;5026472;28;20474;-75
2021/09/30 12:05:28;;;;;;;0.70;0.60;;;34.40;31.10;;;;;;5025350;28;20701;-76
2021/09/30 12:07:54;;;;;;;1.90;0.70;;;35.50;30.00;;;;;;5025217;28;20434;-83
2021/09/30 12:10:20;;;;;;;2.60;0.67;;;36.70;29.10;;;;;;5025506;28;20523;-75
2021/09/30 12:12:46;;;;;;;1.50;0.53;;;37.80;26.60;;;;;;5031361;28;20193;-75
2021/09/30 12:15:12;;;;;;;2.83;0.70;;;38.60;25.60;;;;;;5034422;28;20189;-75
2021/09/30 12:17:38;;;;;;;1.10;0.70;;;38.90;20.10;;;;;;5031958;28;20433;-75
2021/09/30 12:20:06;;;;;;;1.27;0.70;;;39.30;21.10;;;;;;5035907;28;20849;-75
2021/09/30 12:22:53;;;;;;;1.00;0.50;;;39.70;20.90;;;;;;5035221;28;20971;-76
2021/09/30 12:25:26;;;;;;;0.90;0.60;;;40.10;20.00;;;;;;5041237;28;20469;-74
2021/09/30 12:27:55;;;;;;;1.03;0.60;;;40.50;19.70;;;;;;5036056;28;20445;-74
2021/09/30 12:30:27;;;;;;;1.03;0.50;;;41.10;19.80;;;;;;5034736;28;20459;-74
2021/09/30 12:32:59;;;;;;;1.23;0.70;;;41.50;17.70;;;;;;5031726;28;20532;-76
2021/09/30 12:35:28;;;;;;;1.03;0.70;;;41.40;16.80;;;;;;5035435;28;20555;-76
2021/09/30 12:37:57;;;;;;;0.80;0.70;;;41.20;17.00;;;;;;5039062;28;20796;-74
2021/09/30 12:40:33;;;;;;;1.97;0.80;;;41.00;16.80;;;;;;5034423;28;20441;-75
2021/09/30 12:43:13;;;;;;;1.43;0.60;;;41.10;17.30;;;;;;5038090;28;20487;-76
2021/09/30 12:45:42;;;;;;;1.00;0.67;;;41.20;16.70;;;;;;5042848;28;20456;-75
2021/09/30 12:48:16;;;;;;;1.40;0.63;;;41.40;16.70;;;;;;5041579;28;20497;-76
2021/09/30 12:50:45;;;;;;;0.80;0.43;;;41.50;16.80;;;;;;5024138;28;21032;-75
2021/09/30 12:53:12;;;;;;;0.60;0.50;;;41.50;16.50;;;;;;5038220;28;20436;-74
2021/09/30 12:55:38;;;;;;;1.73;1.40;;;41.60;16.20;;;;;;5040877;28;20523;-75
2021/09/30 12:58:05;;;;;;;0.80;0.70;;;41.60;15.80;;;;;;5038333;28;20449;-74
2021/09/30 13:00:33;;;;;;;1.17;0.73;;;41.70;15.70;;;;;;5048411;28;20522;-75
2021/09/30 13:03:16;;;;;;;1.73;0.77;;;41.30;15.20;;;;;;5035856;28;20452;-76
2021/09/30 13:05:53;;;;;;;2.03;1.10;;;41.00;16.10;;;;;;5036669;28;20476;-75
2021/09/30 13:08:39;;;;;;;0.70;0.70;;;41.10;16.30;;;;;;5034538;28;20903;-76
2021/09/30 13:11:31;;;;;;;0.90;0.83;;;41.20;15.70;;;;;;5036787;28;20476;-75
2021/09/30 13:14:18;;;;;;;0.90;0.60;;;41.10;16.00;;;;;;5034489;28;20868;-75
2021/09/30 13:16:56;;;;;;;2.10;0.70;;;41.20;15.80;;;;;;5037864;28;20856;-75
2021/09/30 13:19:49;;;;;;;1.60;0.80;;;41.20;16.30;;;;;;5023434;28;20514;-75
2021/09/30 13:22:39;;;;;;;2.60;0.87;;;41.10;16.50;;;;;;5036476;28;20436;-76
2021/09/30 13:25:17;;;;;;;2.10;0.67;;;41.10;15.80;;;;;;5036926;28;20434;-75
2021/09/30 13:27:44;;;;;;;0.77;0.77;;;40.90;15.50;;;;;;5042134;28;20440;-76
2021/09/30 13:30:13;;;;;;;2.60;0.70;;;40.60;16.60;;;;;;5043310;28;20537;-76
2021/09/30 13:32:39;;;;;;;1.13;1.03;;;40.00;15.60;;;;;;5028655;28;20434;-75
2021/09/30 13:35:06;;;;;;;1.03;0.60;;;39.20;16.20;;;;;;5029314;28;20500;-75
2021/09/30 13:37:31;;;;;;;1.17;0.60;;;39.00;16.70;;;;;;5045343;28;20508;-74
2021/09/30 13:39:59;;;;;;;2.20;0.80;;;38.80;17.60;;;;;;5043821;28;20517;-82
2021/09/30 13:42:27;;;;;;;2.10;0.80;;;38.60;17.20;;;;;;5035316;28;20197;-75
2021/09/30 13:44:53;;;;;;;1.30;1.00;;;38.00;17.40;;;;;;5038166;28;20515;-74
2021/09/30 13:47:18;;;;;;;0.87;0.67;;;37.20;17.40;;;;;;5026848;28;20427;-75
2021/09/30 13:49:44;;;;;;;3.67;1.30;;;36.60;18.30;;;;;;5040109;28;20191;-75
2021/09/30 13:52:10;;;;;;;0.80;0.80;;;36.30;18.20;;;;;;5031704;28;20283;-75
2021/09/30 13:54:35;;;;;;;1.47;0.90;;;35.90;18.60;;;;;;5037232;28;20197;-74
2021/09/30 13:57:01;;;;;;;1.40;0.90;;;35.90;18.70;;;;;;5032843;28;20218;-74
2021/09/30 13:59:26;;;;;;;1.43;0.90;;;36.20;19.40;;;;;;5044265;28;20196;-74
2021/09/30 14:01:52;;;;;;;0.90;0.80;;;36.40;18.90;;;;;;5039978;28;20204;-74
2021/09/30 14:04:17;;;;;;;1.50;0.80;;;36.60;19.00;;;;;;5034771;28;20232;-74
2021/09/30 14:06:43;;;;;;;1.73;0.60;;;36.70;18.70;;;;;;5038780;28;20232;-75
2021/09/30 14:09:09;;;;;;;1.03;0.90;;;37.00;18.90;;;;;;5038680;28;20218;-75
2021/09/30 14:11:34;;;;;;;0.83;0.83;;;37.00;19.10;;;;;;5040684;28;20185;-72
2021/09/30 14:14:00;;;;;;;0.70;0.70;;;36.90;18.50;;;;;;5024272;28;20272;-74
2021/09/30 14:16:25;;;;;;;0.60;0.60;;;36.60;18.20;;;;;;5026216;28;20213;-75
2021/09/30 14:18:52;;;;;;;0.73;0.73;;;36.50;18.80;;;;;;5039020;28;20190;-74
2021/09/30 14:21:18;;;;;;;1.90;0.80;;;36.40;18.70;;;;;;5034007;28;20284;-74
2021/09/30 14:23:45;;;;;;;2.17;1.00;;;36.10;19.00;;;;;;5046931;28;20509;-84
2021/09/30 14:26:10;;;;;;;1.00;0.90;;;35.80;19.80;;;;;;5028096;28;20427;-74
2021/09/30 14:28:36;;;;;;;1.00;0.80;;;35.70;19.70;;;;;;5028989;28;20517;-74
2021/09/30 14:31:02;;;;;;;1.43;0.83;;;35.50;19.40;;;;;;5030910;28;20303;-75
2021/09/30 14:33:30;;;;;;;1.00;0.80;;;35.20;19.00;;;;;;5027280;28;20449;-74
2021/09/30 14:35:57;;;;;;;0.93;0.73;;;34.50;19.50;;;;;;5029822;28;20219;-75
2021/09/30 14:38:23;;;;;;;1.13;0.77;;;34.20;19.90;;;;;;5040455;28;20421;-74
2021/09/30 14:40:50;;;;;;;1.17;1.07;;;33.50;20.10;;;;;;5025660;28;20596;-75
2021/09/30 14:43:21;;;;;;;1.77;1.13;;;32.90;20.60;;;;;;5033027;28;20200;-74
2021/09/30 14:45:48;;;;;;;0.80;0.80;;;32.40;21.20;;;;;;5034759;28;20462;-74
2021/09/30 14:48:13;;;;;;;1.33;1.00;;;31.90;21.50;;;;;;5037355;28;20435;-74
2021/09/30 14:50:41;;;;;;;1.40;1.07;;;31.70;22.10;;;;;;5031519;28;20770;-80
2021/09/30 14:53:07;;;;;;;0.90;0.70;;;31.60;22.20;;;;;;5029158;28;20200;-75
2021/09/30 14:55:33;;;;;;;2.50;1.00;;;31.50;22.50;;;;;;5025118;28;20961;-74
2021/09/30 14:57:58;;;;;;;1.30;0.80;;;31.40;22.20;;;;;;5038662;28;20431;-74
2021/09/30 15:00:24;;;;;;;1.57;0.70;;;31.50;23.00;;;;;;5029491;28;20193;-74
2021/09/30 15:02:50;;;;;;;1.70;0.80;;;31.50;22.60;;;;;;5018971;28;20178;-74
2021/09/30 15:05:15;;;;;;;1.20;1.10;;;31.50;23.00;;;;;;5033871;28;20242;-75
2021/09/30 15:07:42;;;;;;;1.60;1.03;;;31.50;23.00;;;;;;5037324;28;20194;-74
2021/09/30 15:10:08;;;;;;;2.00;1.07;;;31.40;22.40;;;;;;5033482;28;20196;-74
2021/09/30 15:12:33;;;;;;;1.00;1.00;;;30.40;22.50;;;;;;5034504;28;20528;-73
2021/09/30 15:14:59;;;;;;;1.30;1.00;;;28.80;23.20;;;;;;5026236;28;20442;-73
2021/09/30 15:17:35;;;;;;;2.30;1.30;;;27.20;24.70;;;;;;5027600;28;20682;-73
2021/09/30 15:22:46;;;;;;;0.80;0.80;;;24.60;28.70;;;;;;5030428;28;20529;-73
2021/09/30 15:25:13;;;;;;;1.50;1.00;;;23.40;29.90;;;;;;5028757;28;20530;-73
2021/09/30 15:27:38;;;;;;;1.27;1.07;;;22.60;31.00;;;;;;5026285;28;20261;-72
2021/09/30 15:30:05;;;;;;;0.87;0.87;;;21.60;32.20;;;;;;5026261;28;20537;-72
2021/09/30 15:32:31;;;;;;;0.90;0.90;;;20.90;33.80;;;;;;5028079;28;20186;-73
2021/09/30 15:34:56;;;;;;;1.13;1.03;;;20.30;35.60;;;;;;5033660;28;20453;-74
2021/09/30 15:37:22;;;;;;;2.00;1.17;;;20.00;37.30;;;;;;5027528;28;20242;-75
2021/09/30 15:40:08;;;;;;;1.00;0.97;;;19.50;37.90;;;;;;5022182;28;20189;-73
2021/09/30 15:42:34;;;;;;;1.13;1.07;;;18.80;38.80;;;;;;5029736;28;20179;-74
2021/09/30 15:44:59;;;;;;;1.23;1.20;;;18.40;39.10;;;;;;5028650;28;20462;-74
2021/09/30 15:47:26;;;;;;;1.80;1.00;;;18.10;39.90;;;;;;5024305;28;20194;-73
2021/09/30 15:49:52;;;;;;;1.47;0.90;;;17.90;41.50;;;;;;5024734;28;20184;-73